createdAt,value
2022-12-06T00:01:34.792Z,29.60
2022-12-06T00:04:11.789Z,28.58
2022-12-06T00:06:45.274Z,27.90
2022-12-06T00:09:20.036Z,33.40
2022-12-06T00:11:48.146Z,34.50
2022-12-06T00:14:15.957Z,26.77
2022-12-06T00:16:43.711Z,28.58
2022-12-06T00:19:16.892Z,28.33
2022-12-06T00:21:44.697Z,28.98
2022-12-06T00:24:15.158Z,30.25
2022-12-06T00:26:45.170Z,27.38
2022-12-06T00:29:15.956Z,32.22
2022-12-06T00:31:43.745Z,31.52
2022-12-06T00:34:11.641Z,31.13
2022-12-06T00:36:41.346Z,37.58
2022-12-06T00:39:11.666Z,30.02
2022-12-06T00:41:39.846Z,30.65
2022-12-06T00:44:07.643Z,35.30
2022-12-06T00:46:36.400Z,32.33
2022-12-06T00:49:06.550Z,25.83
2022-12-06T00:51:35.525Z,30.80
2022-12-06T00:54:03.553Z,33.10
2022-12-06T00:56:31.640Z,31.58
2022-12-06T00:58:59.361Z,31.02
2022-12-06T01:01:29.893Z,31.50
2022-12-06T01:04:00.585Z,31.83
2022-12-06T01:06:31.149Z,36.10
2022-12-06T01:09:01.749Z,29.38
2022-12-06T01:11:30.048Z,32.45
2022-12-06T01:13:57.835Z,30.10
2022-12-06T01:16:29.259Z,34.65
2022-12-06T01:18:59.582Z,32.58
2022-12-06T01:21:28.565Z,31.20
2022-12-06T01:23:56.754Z,30.27
2022-12-06T01:26:35.099Z,30.95
2022-12-06T01:29:04.049Z,30.02
2022-12-06T01:31:38.604Z,27.90
2022-12-06T01:34:15.545Z,29.08
2022-12-06T01:36:43.796Z,29.20
2022-12-06T01:39:12.782Z,27.88
2022-12-06T01:41:40.786Z,29.23
2022-12-06T01:44:43.131Z,26.75
2022-12-06T01:47:49.146Z,30.00
2022-12-06T01:50:27.857Z,29.08
2022-12-06T01:53:10.173Z,32.80
2022-12-06T01:55:40.896Z,31.30
2022-12-06T01:58:13.499Z,27.77
2022-12-06T02:00:41.159Z,32.08
2022-12-06T02:03:14.181Z,27.92
2022-12-06T02:05:42.424Z,31.05
2022-12-06T02:08:11.165Z,32.25
2022-12-06T02:10:39.268Z,29.90
2022-12-06T02:13:07.485Z,32.03
2022-12-06T02:15:50.283Z,26.95
2022-12-06T02:18:34.857Z,26.05
2022-12-06T02:21:05.568Z,29.25
2022-12-06T02:24:02.641Z,29.92
2022-12-06T02:26:42.284Z,26.60
2022-12-06T02:29:18.916Z,26.38
2022-12-06T02:32:18.232Z,24.35
2022-12-06T02:35:20.503Z,29.70
2022-12-06T02:37:58.214Z,30.98
2022-12-06T02:40:58.208Z,24.60
2022-12-06T02:43:35.949Z,26.80
2022-12-06T02:46:04.709Z,30.45
2022-12-06T02:48:34.167Z,26.40
2022-12-06T02:51:06.517Z,25.73
2022-12-06T02:53:38.248Z,25.07
2022-12-06T02:56:06.240Z,27.88
2022-12-06T02:58:37.963Z,24.92
2022-12-06T03:01:15.430Z,26.33
2022-12-06T03:04:07.617Z,26.25
2022-12-06T03:07:15.091Z,24.10
2022-12-06T03:10:04.292Z,19.83
2022-12-06T03:13:02.889Z,23.83
2022-12-06T03:15:49.037Z,23.80
2022-12-06T03:18:16.611Z,20.42
2022-12-06T03:20:56.483Z,21.40
2022-12-06T03:23:37.836Z,20.88
2022-12-06T03:26:07.060Z,21.55
2022-12-06T03:28:37.063Z,23.77
2022-12-06T03:31:09.890Z,23.70
2022-12-06T03:33:44.064Z,19.70
2022-12-06T03:36:14.753Z,22.40
2022-12-06T03:39:06.518Z,18.27
2022-12-06T03:41:41.255Z,17.80
2022-12-06T03:44:09.049Z,19.92
2022-12-06T03:46:41.638Z,21.85
2022-12-06T03:49:19.400Z,26.30
2022-12-06T03:51:47.614Z,20.75
2022-12-06T03:54:16.245Z,20.98
2022-12-06T03:56:43.977Z,22.67
2022-12-06T03:59:11.910Z,21.45
2022-12-06T04:01:40.170Z,23.40
2022-12-06T04:04:07.926Z,54.60
2022-12-06T04:06:35.727Z,21.85
2022-12-06T04:09:22.159Z,23.00
2022-12-06T04:11:49.704Z,21.88
2022-12-06T04:14:17.435Z,21.67
2022-12-06T04:17:03.367Z,20.63
2022-12-06T04:19:31.124Z,20.13
2022-12-06T04:22:17.181Z,23.27
2022-12-06T04:24:44.659Z,26.13
2022-12-06T04:27:30.867Z,21.77
2022-12-06T04:30:16.862Z,22.45
2022-12-06T04:33:02.777Z,26.63
2022-12-06T04:35:48.854Z,24.92
2022-12-06T04:38:34.929Z,26.58
2022-12-06T04:41:02.521Z,24.25
2022-12-06T04:43:42.053Z,25.75
2022-12-06T04:46:11.838Z,25.95
2022-12-06T04:48:40.432Z,25.30
2022-12-06T04:51:08.009Z,26.50
2022-12-06T04:53:35.665Z,28.20
2022-12-06T04:56:03.381Z,25.83
2022-12-06T04:58:30.916Z,26.55
2022-12-06T05:00:58.598Z,29.77
2022-12-06T05:03:26.244Z,30.52
2022-12-06T05:05:53.972Z,26.02
2022-12-06T05:08:21.729Z,29.20
2022-12-06T05:10:50.336Z,31.70
2022-12-06T05:13:19.079Z,33.30
2022-12-06T05:15:51.741Z,26.50
2022-12-06T05:18:19.375Z,29.80
2022-12-06T05:20:47.308Z,24.67
2022-12-06T05:23:15.099Z,25.20
2022-12-06T05:25:43.084Z,30.83
2022-12-06T05:28:10.864Z,22.58
2022-12-06T05:30:38.470Z,26.90
2022-12-06T05:33:06.197Z,26.13
2022-12-06T05:35:33.750Z,24.30
2022-12-06T05:38:01.426Z,22.10
2022-12-06T05:40:29.048Z,28.25
2022-12-06T05:42:56.660Z,23.52
2022-12-06T05:45:24.443Z,23.48
2022-12-06T05:47:51.953Z,22.48
2022-12-06T05:50:19.654Z,28.67
2022-12-06T05:52:48.922Z,29.05
2022-12-06T05:55:16.709Z,24.02
2022-12-06T05:57:47.389Z,24.13
2022-12-06T06:00:16.085Z,24.45
2022-12-06T06:02:43.825Z,24.77
2022-12-06T06:05:12.218Z,23.70
2022-12-06T06:07:39.865Z,24.42
2022-12-06T06:10:07.986Z,23.08
2022-12-06T06:12:35.456Z,25.08
2022-12-06T06:15:05.260Z,27.55
2022-12-06T06:17:34.101Z,28.50
2022-12-06T06:20:05.694Z,26.30
2022-12-06T06:22:35.175Z,29.15
2022-12-06T06:25:03.490Z,34.45
2022-12-06T06:27:34.810Z,32.53
2022-12-06T06:30:02.783Z,34.63
2022-12-06T06:32:30.765Z,42.25
2022-12-06T06:34:58.327Z,39.03
2022-12-06T06:37:26.059Z,33.13
2022-12-06T06:39:53.734Z,34.65
2022-12-06T06:42:21.264Z,33.40
2022-12-06T06:44:48.776Z,35.15
2022-12-06T06:47:16.285Z,31.77
2022-12-06T06:49:43.829Z,32.92
2022-12-06T06:52:11.347Z,34.70
2022-12-06T06:54:39.028Z,31.88
2022-12-06T06:57:06.628Z,27.63
2022-12-06T06:59:34.351Z,30.25
2022-12-06T07:02:01.989Z,32.65
2022-12-06T07:04:30.376Z,26.75
2022-12-06T07:06:58.247Z,31.58
2022-12-06T07:09:25.902Z,28.10
2022-12-06T07:11:54.552Z,31.58
2022-12-06T07:14:22.175Z,26.70
2022-12-06T07:16:49.844Z,25.13
2022-12-06T07:19:17.485Z,25.90
2022-12-06T07:21:45.080Z,30.95
2022-12-06T07:24:12.674Z,31.35
2022-12-06T07:26:41.276Z,30.88
2022-12-06T07:29:08.809Z,28.00
2022-12-06T07:31:36.364Z,31.15
2022-12-06T07:34:04.026Z,30.80
2022-12-06T07:36:32.781Z,29.73
2022-12-06T07:39:00.857Z,31.35
2022-12-06T07:41:48.424Z,31.27
2022-12-06T07:44:56.916Z,31.25
2022-12-06T07:47:40.956Z,36.72
2022-12-06T07:50:18.263Z,31.75
2022-12-06T07:52:48.331Z,34.83
2022-12-06T07:55:16.413Z,33.00
2022-12-06T07:57:44.423Z,38.20
2022-12-06T08:00:15.631Z,37.80
2022-12-06T08:02:43.521Z,37.80
2022-12-06T08:05:12.746Z,37.33
2022-12-06T08:07:40.497Z,36.55
2022-12-06T08:10:08.756Z,35.00
2022-12-06T08:12:36.801Z,33.25
2022-12-06T08:15:05.168Z,34.60
2022-12-06T08:17:32.708Z,35.40
2022-12-06T08:20:00.535Z,31.75
2022-12-06T08:22:29.062Z,38.38
2022-12-06T08:24:56.642Z,35.25
2022-12-06T08:27:24.216Z,35.55
2022-12-06T08:29:51.975Z,36.42
2022-12-06T08:32:19.508Z,33.95
2022-12-06T08:34:47.400Z,27.25
2022-12-06T08:37:14.974Z,31.75
2022-12-06T08:39:42.678Z,35.28
2022-12-06T08:42:10.405Z,40.88
2022-12-06T08:44:38.103Z,32.55
2022-12-06T08:47:05.754Z,30.13
2022-12-06T08:49:33.463Z,31.70
2022-12-06T08:52:01.156Z,34.38
2022-12-06T08:54:29.417Z,32.03
2022-12-06T08:56:57.023Z,34.45
2022-12-06T08:59:24.735Z,35.33
2022-12-06T09:01:52.417Z,41.80
2022-12-06T09:04:20.316Z,33.75
2022-12-06T09:06:48.024Z,38.58
2022-12-06T09:09:17.959Z,30.30
2022-12-06T09:11:46.248Z,36.10
2022-12-06T09:14:21.579Z,38.53
2022-12-06T09:16:51.249Z,38.70
2022-12-06T09:19:20.041Z,36.60
2022-12-06T09:21:47.804Z,34.42
2022-12-06T09:24:17.518Z,38.63
2022-12-06T09:26:45.420Z,33.35
2022-12-06T09:29:14.541Z,34.13
2022-12-06T09:31:42.564Z,32.75
2022-12-06T09:34:12.689Z,32.75
2022-12-06T09:37:04.002Z,34.67
2022-12-06T09:39:38.202Z,30.10
2022-12-06T09:42:11.901Z,25.58
2022-12-06T09:44:45.855Z,30.42
2022-12-06T09:47:44.627Z,27.10
2022-12-06T09:50:18.691Z,32.05
2022-12-06T09:52:58.890Z,28.50
2022-12-06T09:55:38.875Z,30.92
2022-12-06T09:58:43.178Z,32.67
2022-12-06T10:01:29.038Z,34.45
2022-12-06T10:04:17.994Z,32.97
2022-12-06T10:07:09.988Z,31.55
2022-12-06T10:09:46.870Z,28.02
2022-12-06T10:12:26.853Z,43.03
2022-12-06T10:15:00.249Z,34.97
2022-12-06T10:17:52.503Z,32.35
2022-12-06T10:20:58.260Z,34.72
2022-12-06T10:23:41.433Z,32.00
2022-12-06T10:26:17.243Z,33.20
2022-12-06T10:28:46.519Z,30.13
2022-12-06T10:31:39.238Z,28.45
2022-12-06T10:34:37.563Z,29.83
2022-12-06T10:37:42.896Z,31.55
2022-12-06T10:40:45.010Z,33.85
2022-12-06T10:43:30.316Z,33.75
2022-12-06T10:46:29.191Z,42.22
2022-12-06T10:49:07.606Z,27.88
2022-12-06T10:52:04.644Z,25.73
2022-12-06T10:54:59.480Z,28.52
2022-12-06T10:57:53.043Z,35.33
2022-12-06T11:00:26.127Z,28.13
2022-12-06T11:03:12.022Z,27.33
2022-12-06T11:06:14.643Z,27.63
2022-12-06T11:08:51.125Z,25.45
2022-12-06T11:11:33.277Z,28.20
2022-12-06T11:14:15.170Z,28.50
2022-12-06T11:17:07.196Z,31.02
2022-12-06T11:19:54.985Z,30.33
2022-12-06T11:22:33.527Z,34.72
2022-12-06T11:25:09.916Z,28.50
2022-12-06T11:27:45.234Z,28.48
2022-12-06T11:30:20.615Z,25.88
2022-12-06T11:32:52.916Z,24.80
2022-12-06T11:35:25.061Z,27.05
2022-12-06T11:38:00.542Z,24.98
2022-12-06T11:40:36.684Z,24.40
2022-12-06T11:43:07.708Z,26.92
2022-12-06T11:45:39.991Z,22.35
2022-12-06T11:48:17.563Z,25.07
2022-12-06T11:50:46.949Z,22.58
2022-12-06T11:53:27.182Z,24.00
2022-12-06T11:56:05.020Z,30.58
2022-12-06T11:58:44.194Z,28.38
2022-12-06T12:01:14.517Z,27.98
2022-12-06T12:03:43.896Z,24.33
2022-12-06T12:06:23.211Z,37.47
2022-12-06T12:09:16.881Z,26.65
2022-12-06T12:11:44.576Z,23.95
2022-12-06T12:14:18.326Z,22.55
2022-12-06T12:16:48.462Z,23.45
2022-12-06T12:19:45.877Z,25.98
2022-12-06T12:22:29.512Z,23.88
2022-12-06T12:27:52.653Z,21.23
2022-12-06T12:30:29.292Z,22.02
2022-12-06T12:33:05.936Z,23.92
2022-12-06T12:35:37.906Z,24.48
2022-12-06T12:38:15.940Z,29.50
2022-12-06T12:40:52.703Z,25.65
2022-12-06T12:43:24.736Z,21.95
2022-12-06T12:46:10.938Z,24.08
2022-12-06T12:48:40.798Z,22.52
2022-12-06T12:51:40.581Z,20.92
2022-12-06T12:54:23.646Z,22.10
2022-12-06T12:56:51.386Z,22.42
2022-12-06T12:59:23.608Z,23.30
2022-12-06T13:02:18.215Z,24.02
2022-12-06T13:05:05.165Z,23.85
2022-12-06T13:07:42.261Z,26.58
2022-12-06T13:10:24.449Z,22.00
2022-12-06T13:12:57.971Z,22.13
2022-12-06T13:15:47.114Z,20.85
2022-12-06T13:18:25.899Z,24.60
2022-12-06T13:20:57.673Z,24.50
2022-12-06T13:23:29.476Z,23.85
2022-12-06T13:26:16.564Z,20.85
2022-12-06T13:28:50.958Z,19.98
2022-12-06T13:31:22.043Z,22.65
2022-12-06T13:33:59.323Z,20.40
2022-12-06T13:36:31.023Z,20.67
2022-12-06T13:38:59.277Z,22.20
2022-12-06T13:41:52.711Z,23.67
2022-12-06T13:44:48.172Z,22.58
2022-12-06T13:47:28.091Z,25.85
2022-12-06T13:49:59.612Z,23.40
2022-12-06T13:52:53.382Z,22.27
2022-12-06T13:57:55.507Z,21.63
2022-12-06T14:00:31.914Z,26.42
2022-12-06T14:03:04.194Z,21.63
2022-12-06T14:06:12.167Z,28.42
2022-12-06T14:08:54.725Z,21.63
2022-12-06T14:11:27.657Z,25.33
2022-12-06T14:14:01.400Z,24.42
2022-12-06T14:16:32.272Z,22.23
2022-12-06T14:19:00.358Z,22.23
2022-12-06T14:21:36.072Z,21.40
2022-12-06T14:24:04.595Z,23.55
2022-12-06T14:26:34.961Z,25.48
2022-12-06T14:29:02.805Z,22.05
2022-12-06T14:31:39.076Z,23.55
2022-12-06T14:34:07.002Z,21.98
2022-12-06T14:36:40.879Z,22.20
2022-12-06T14:39:18.026Z,22.90
2022-12-06T14:42:22.887Z,22.60
2022-12-06T14:45:01.810Z,24.92
2022-12-06T14:47:31.664Z,26.73
2022-12-06T14:50:20.082Z,29.05
2022-12-06T14:53:07.877Z,27.42
2022-12-06T14:55:53.991Z,25.15
2022-12-06T14:58:26.401Z,25.75
2022-12-06T15:01:05.223Z,26.37
2022-12-06T15:03:35.693Z,28.85
2022-12-06T15:06:17.208Z,24.67
2022-12-06T15:09:11.506Z,27.50
2022-12-06T15:11:59.737Z,28.35
2022-12-06T15:14:46.115Z,27.02
2022-12-06T15:17:29.096Z,27.15
2022-12-06T15:20:20.201Z,24.80
2022-12-06T15:23:09.464Z,29.60
2022-12-06T15:26:10.694Z,25.13
2022-12-06T15:28:54.075Z,25.83
2022-12-06T15:31:34.626Z,29.13
2022-12-06T15:34:48.506Z,29.77
2022-12-06T15:37:38.542Z,25.33
2022-12-06T15:40:22.287Z,25.75
2022-12-06T15:45:54.091Z,27.33
2022-12-06T15:48:32.703Z,29.02
2022-12-06T15:51:37.919Z,28.42
2022-12-06T15:54:34.775Z,26.02
2022-12-06T15:57:22.189Z,26.08
2022-12-06T15:59:57.431Z,33.78
2022-12-06T16:02:28.952Z,31.23
2022-12-06T16:05:10.464Z,31.48
2022-12-06T16:07:49.916Z,28.80
2022-12-06T16:11:03.047Z,31.45
2022-12-06T16:13:28.534Z,32.97
2022-12-06T16:16:07.705Z,33.47
2022-12-06T16:19:00.006Z,32.60
2022-12-06T16:21:52.440Z,32.00
2022-12-06T16:24:50.812Z,36.30
2022-12-06T16:27:30.543Z,28.40
2022-12-06T16:30:04.350Z,28.23
2022-12-06T16:32:45.526Z,33.95
2022-12-06T16:35:41.921Z,32.83
2022-12-06T16:38:24.632Z,33.15
2022-12-06T16:41:04.974Z,28.40
2022-12-06T16:43:40.279Z,30.20
2022-12-06T16:46:37.717Z,36.67
2022-12-06T16:49:46.211Z,33.13
2022-12-06T16:52:27.149Z,36.67
2022-12-06T16:55:22.241Z,34.90
2022-12-06T16:57:57.413Z,38.33
2022-12-06T17:00:42.090Z,37.78
2022-12-06T17:03:32.457Z,41.35
2022-12-06T17:06:19.835Z,31.55
2022-12-06T17:09:08.554Z,37.00
2022-12-06T17:12:14.267Z,37.55
2022-12-06T17:14:50.072Z,35.08
2022-12-06T17:17:28.329Z,33.72
2022-12-06T17:20:16.050Z,38.95
2022-12-06T17:22:55.284Z,34.45
2022-12-06T17:25:33.863Z,33.55
2022-12-06T17:28:20.538Z,35.85
2022-12-06T17:37:10.143Z,38.22
2022-12-06T17:39:43.075Z,33.63
2022-12-06T17:42:44.324Z,35.33
2022-12-06T17:45:24.863Z,39.05
2022-12-06T17:48:04.598Z,37.25
2022-12-06T17:50:47.122Z,32.72
2022-12-06T17:53:19.573Z,39.83
2022-12-06T17:55:57.057Z,41.85
2022-12-06T17:58:43.999Z,37.08
2022-12-06T18:04:42.922Z,39.10
2022-12-06T18:07:23.602Z,37.63
2022-12-06T18:10:06.574Z,34.35
2022-12-06T18:15:51.685Z,39.30
2022-12-06T18:19:08.560Z,36.78
2022-12-06T18:21:49.199Z,33.35
2022-12-06T18:24:39.375Z,39.67
2022-12-06T18:27:21.172Z,39.45
2022-12-06T18:30:32.735Z,41.05
2022-12-06T18:33:21.963Z,43.28
2022-12-06T18:36:15.869Z,40.03
2022-12-06T18:39:30.398Z,42.90
2022-12-06T18:42:11.846Z,43.60
2022-12-06T18:45:01.916Z,37.20
2022-12-06T18:48:10.882Z,48.75
2022-12-06T18:50:58.534Z,42.00
2022-12-06T18:53:50.698Z,36.88
2022-12-06T18:56:23.837Z,36.03
2022-12-06T19:02:12.841Z,34.85
2022-12-06T19:05:01.880Z,42.75
2022-12-06T19:07:45.115Z,38.67
2022-12-06T19:10:54.757Z,36.60
2022-12-06T19:13:59.028Z,37.10
2022-12-06T19:16:49.627Z,34.20
2022-12-06T19:19:38.693Z,34.38
2022-12-06T19:22:18.917Z,36.88
2022-12-06T19:24:54.114Z,35.42
2022-12-06T19:27:21.757Z,40.85
2022-12-06T19:29:49.619Z,38.55
2022-12-06T19:32:17.314Z,36.58
2022-12-06T19:34:54.211Z,40.30
2022-12-06T19:37:27.608Z,38.88
2022-12-06T19:39:57.716Z,38.78
2022-12-06T19:42:44.032Z,36.67
2022-12-06T19:45:11.794Z,34.75
2022-12-06T19:47:39.567Z,35.17
2022-12-06T19:50:08.082Z,44.13
2022-12-06T19:52:35.660Z,39.10
2022-12-06T19:55:03.783Z,41.15
2022-12-06T19:57:32.363Z,40.92
2022-12-06T20:00:00.240Z,36.42
2022-12-06T20:02:28.153Z,34.28
2022-12-06T20:04:55.903Z,34.80
2022-12-06T20:07:23.544Z,39.30
2022-12-06T20:09:51.293Z,37.45
2022-12-06T20:12:18.839Z,40.30
2022-12-06T20:14:48.192Z,35.22
2022-12-06T20:17:20.854Z,44.80
2022-12-06T20:19:51.625Z,32.75
2022-12-06T20:22:22.414Z,35.25
2022-12-06T20:24:50.192Z,33.05
2022-12-06T20:27:17.753Z,34.30
2022-12-06T20:29:45.465Z,36.80
2022-12-06T20:32:13.151Z,37.25
2022-12-06T20:34:40.710Z,31.10
2022-12-06T20:37:08.514Z,35.65
2022-12-06T20:39:36.622Z,31.83
2022-12-06T20:42:07.071Z,31.30
2022-12-06T20:44:35.668Z,35.47
2022-12-06T20:47:03.915Z,32.30
2022-12-06T20:49:31.604Z,31.17
2022-12-06T20:52:02.267Z,32.25
2022-12-06T20:54:30.081Z,33.67
2022-12-06T20:56:58.505Z,34.83
2022-12-06T20:59:26.305Z,30.45
2022-12-06T21:01:55.054Z,26.15
2022-12-06T21:04:22.741Z,34.92
2022-12-06T21:06:50.491Z,33.42
2022-12-06T21:09:18.146Z,28.08
2022-12-06T21:11:46.064Z,28.45
2022-12-06T21:14:16.008Z,26.98
2022-12-06T21:16:44.215Z,30.88
2022-12-06T21:19:17.865Z,28.17
2022-12-06T21:21:49.325Z,27.13
2022-12-06T21:24:20.088Z,33.47
2022-12-06T21:26:48.932Z,27.17
2022-12-06T21:29:26.666Z,25.98
2022-12-06T21:31:59.967Z,24.77
2022-12-06T21:34:27.646Z,24.05
2022-12-06T21:36:55.259Z,29.42
2022-12-06T21:39:22.934Z,25.15
2022-12-06T21:41:50.635Z,28.25
2022-12-06T21:44:18.356Z,28.20
2022-12-06T21:46:46.012Z,28.60
2022-12-06T21:49:13.772Z,28.42
2022-12-06T21:51:41.374Z,29.40
2022-12-06T21:54:09.201Z,27.98
2022-12-06T21:56:38.261Z,24.60
2022-12-06T21:59:06.059Z,24.35
2022-12-06T22:01:34.139Z,27.52
2022-12-06T22:04:04.635Z,31.17
2022-12-06T22:06:34.568Z,27.45
2022-12-06T22:09:06.017Z,26.63
2022-12-06T22:11:35.195Z,30.83
2022-12-06T22:14:05.004Z,22.42
2022-12-06T22:16:33.278Z,27.73
2022-12-06T22:19:01.654Z,23.50
2022-12-06T22:21:31.660Z,25.00
2022-12-06T22:24:00.531Z,26.27
2022-12-06T22:26:30.046Z,27.17
2022-12-06T22:28:59.248Z,19.45
2022-12-06T22:31:29.681Z,18.42
2022-12-06T22:33:58.153Z,19.05
2022-12-06T22:36:26.551Z,21.33
2022-12-06T22:38:57.485Z,19.00
2022-12-06T22:41:25.885Z,20.77
2022-12-06T22:43:55.764Z,21.70
2022-12-06T22:46:24.111Z,19.90
2022-12-06T22:48:52.108Z,18.33
2022-12-06T22:51:28.219Z,20.75
2022-12-06T22:53:58.293Z,19.15
2022-12-06T22:56:26.876Z,19.38
2022-12-06T22:58:55.892Z,21.02
2022-12-06T23:01:26.698Z,17.98
2022-12-06T23:03:54.989Z,17.88
2022-12-06T23:06:25.316Z,23.27
2022-12-06T23:08:53.923Z,21.27
2022-12-06T23:11:23.430Z,18.63
2022-12-06T23:13:51.241Z,21.08
2022-12-06T23:16:21.881Z,20.05
2022-12-06T23:18:50.137Z,18.60
2022-12-06T23:21:20.697Z,23.95
2022-12-06T23:23:51.231Z,20.40
2022-12-06T23:26:22.177Z,19.17
2022-12-06T23:28:50.517Z,20.83
2022-12-06T23:31:24.518Z,22.75
2022-12-06T23:33:54.952Z,20.88
2022-12-06T23:36:28.404Z,20.13
2022-12-06T23:38:55.996Z,19.08
2022-12-06T23:41:26.697Z,20.70
2022-12-06T23:43:55.181Z,21.42
2022-12-06T23:46:28.212Z,18.25
2022-12-06T23:48:56.324Z,20.75
2022-12-06T23:51:26.459Z,18.17
2022-12-06T23:53:59.219Z,20.35
2022-12-06T23:56:33.966Z,18.20
2022-12-06T23:59:03.182Z,17.95
